Time;durP1;ratioP1;P1;durP2;ratioP2;P2;SDS_P1;SDS_P2;PMS_P1;PMS_P2;Temp;Humidity;BMP_temperature;BMP_pressure;BME280_temperature;BME280_humidity;BME280_pressure;Samples;Min_cycle;Max_cycle;Signal;HPM_P1;HPM_P2
2023/04/22 00:02:23;;;;;;;;;;;12.60;99.90;;;;;;5169096;27;20326;-38
2023/04/22 00:04:49;;;;;;;;;;;12.50;99.90;;;;;;5170025;27;19907;-39
2023/04/22 00:07:15;;;;;;;;;;;12.40;99.90;;;;;;5154825;27;19915;-39
2023/04/22 00:09:41;;;;;;;;;;;12.40;99.90;;;;;;5154995;27;19907;-39
2023/04/22 00:12:07;;;;;;;;;;;12.20;99.90;;;;;;5160292;27;20056;-39
2023/04/22 00:14:33;;;;;;;;;;;12.10;99.90;;;;;;5154881;27;19939;-39
2023/04/22 00:16:59;;;;;;;;;;;12.10;99.90;;;;;;5159571;27;19918;-40
2023/04/22 00:19:24;;;;;;;;;;;12.00;99.90;;;;;;5174912;27;19934;-39
2023/04/22 00:21:49;;;;;;;;;;;11.90;99.90;;;;;;5175619;27;19910;-39
2023/04/22 00:24:15;;;;;;;;;;;11.90;99.90;;;;;;5175500;27;19910;-39
2023/04/22 00:26:41;;;;;;;;;;;11.80;99.90;;;;;;5174478;27;19922;-39
2023/04/22 00:29:06;;;;;;;;;;;11.80;99.90;;;;;;5175177;27;20385;-39
2023/04/22 00:31:31;;;;;;;;;;;11.80;99.90;;;;;;5174250;27;19943;-39
2023/04/22 00:33:57;;;;;;;;;;;11.70;99.90;;;;;;5174660;27;19914;-39
2023/04/22 00:36:23;;;;;;;;;;;11.70;99.90;;;;;;5175394;27;19907;-39
2023/04/22 00:38:49;;;;;;;;;;;11.70;99.90;;;;;;5175359;27;20126;-39
2023/04/22 00:41:15;;;;;;;;;;;11.50;99.90;;;;;;5174528;27;19914;-39
2023/04/22 00:43:41;;;;;;;;;;;11.50;99.90;;;;;;5175354;27;19907;-39
2023/04/22 00:46:07;;;;;;;;;;;11.40;99.90;;;;;;5175290;27;19966;-39
2023/04/22 00:48:33;;;;;;;;;;;11.40;99.90;;;;;;5174543;27;20001;-41
2023/04/22 00:50:58;;;;;;;;;;;11.30;99.90;;;;;;5175259;27;20203;-40
2023/04/22 00:53:24;;;;;;;;;;;11.20;99.90;;;;;;5174618;27;20268;-39
2023/04/22 00:55:49;;;;;;;;;;;11.10;99.90;;;;;;5174963;27;19907;-39
2023/04/22 00:58:16;;;;;;;;;;;11.10;99.90;;;;;;5175268;27;19914;-39
2023/04/22 01:00:42;;;;;;;;;;;11.10;99.90;;;;;;5174163;27;20360;-39
2023/04/22 01:03:08;;;;;;;;;;;11.10;99.90;;;;;;5175136;27;20002;-39
2023/04/22 01:05:34;;;;;;;;;;;11.10;99.90;;;;;;5175154;27;19913;-39
2023/04/22 01:08:00;;;;;;;;;;;11.10;99.90;;;;;;5173963;27;20407;-41
2023/04/22 01:10:25;;;;;;;;;;;11.10;99.90;;;;;;5175013;27;19907;-39
2023/04/22 01:12:51;;;;;;;;;;;11.10;99.90;;;;;;5174989;27;19907;-39
2023/04/22 01:15:16;;;;;;;;;;;11.10;99.90;;;;;;5174295;27;20349;-39
2023/04/22 01:17:42;;;;;;;;;;;11.10;99.90;;;;;;5175024;27;19911;-38
2023/04/22 01:20:10;;;;;;;;;;;11.10;99.90;;;;;;5174478;27;19911;-39
2023/04/22 01:22:39;;;;;;;;;;;11.10;99.90;;;;;;5174548;27;20006;-39
2023/04/22 01:25:05;;;;;;;;;;;11.10;99.90;;;;;;5174819;27;20029;-39
2023/04/22 01:27:31;;;;;;;;;;;11.10;99.90;;;;;;5174826;27;20394;-39
2023/04/22 01:29:57;;;;;;;;;;;11.00;99.90;;;;;;5173791;27;19925;-39
2023/04/22 01:32:22;;;;;;;;;;;11.00;99.90;;;;;;5174938;27;20356;-39
2023/04/22 01:34:48;;;;;;;;;;;10.90;99.90;;;;;;5174738;27;19911;-39
2023/04/22 01:37:13;;;;;;;;;;;10.90;99.90;;;;;;5174049;27;20001;-39
2023/04/22 01:39:39;;;;;;;;;;;11.00;99.90;;;;;;5174758;27;19907;-40
2023/04/22 01:42:04;;;;;;;;;;;11.10;99.90;;;;;;5175633;27;19911;-39
2023/04/22 01:44:30;;;;;;;;;;;11.00;99.90;;;;;;5177885;27;19907;-40
2023/04/22 01:46:55;;;;;;;;;;;11.00;99.90;;;;;;5178546;27;19915;-39
2023/04/22 01:49:21;;;;;;;;;;;11.00;99.90;;;;;;5178299;27;19931;-39
2023/04/22 01:51:46;;;;;;;;;;;11.00;99.90;;;;;;5177792;27;19907;-39
2023/04/22 01:54:12;;;;;;;;;;;11.00;99.90;;;;;;5178487;27;20325;-39
2023/04/22 01:56:39;;;;;;;;;;;11.00;99.90;;;;;;5178620;27;19910;-39
2023/04/22 01:59:05;;;;;;;;;;;10.90;99.90;;;;;;5177771;27;19910;-39
2023/04/22 02:01:31;;;;;;;;;;;10.90;99.90;;;;;;5178334;27;19906;-39
2023/04/22 02:03:56;;;;;;;;;;;10.80;99.90;;;;;;5177598;27;19906;-39
2023/04/22 02:06:22;;;;;;;;;;;10.80;99.90;;;;;;5178249;27;19933;-39
2023/04/22 02:08:47;;;;;;;;;;;10.80;99.90;;;;;;5178564;27;19914;-40
2023/04/22 02:11:12;;;;;;;;;;;10.70;99.90;;;;;;5177367;27;19914;-39
2023/04/22 02:13:39;;;;;;;;;;;10.70;99.90;;;;;;5178185;27;20002;-39
2023/04/22 02:16:05;;;;;;;;;;;10.60;99.90;;;;;;5178001;27;20329;-40
2023/04/22 02:18:31;;;;;;;;;;;10.60;99.90;;;;;;5177367;27;19930;-39
2023/04/22 02:20:56;;;;;;;;;;;10.60;99.90;;;;;;5177530;27;20292;-39
2023/04/22 02:23:22;;;;;;;;;;;10.60;99.90;;;;;;5177677;27;19911;-39
2023/04/22 02:25:51;;;;;;;;;;;10.60;99.90;;;;;;5177042;27;19914;-39
2023/04/22 02:28:17;;;;;;;;;;;10.60;99.90;;;;;;5177973;27;20006;-39
2023/04/22 02:30:44;;;;;;;;;;;10.50;99.90;;;;;;5177423;27;20280;-39
2023/04/22 02:33:09;;;;;;;;;;;10.50;99.90;;;;;;5176959;27;19914;-39
2023/04/22 02:35:35;;;;;;;;;;;10.50;99.90;;;;;;5177701;27;19907;-39
2023/04/22 02:38:00;;;;;;;;;;;10.40;99.90;;;;;;5177601;27;19906;-39
2023/04/22 02:40:26;;;;;;;;;;;10.40;99.90;;;;;;5176654;27;19953;-39
2023/04/22 02:42:51;;;;;;;;;;;10.40;99.90;;;;;;5177533;27;20272;-39
2023/04/22 02:45:17;;;;;;;;;;;10.30;99.90;;;;;;5177512;27;19907;-39
2023/04/22 02:47:42;;;;;;;;;;;10.30;99.90;;;;;;5176721;27;19915;-38
2023/04/22 02:50:08;;;;;;;;;;;10.30;99.90;;;;;;5177369;27;20339;-39
2023/04/22 02:52:33;;;;;;;;;;;10.20;99.90;;;;;;5177209;27;19907;-39
2023/04/22 02:54:59;;;;;;;;;;;10.20;99.90;;;;;;5175749;27;20005;-39
2023/04/22 02:57:25;;;;;;;;;;;10.20;99.90;;;;;;5177424;27;19911;-39
2023/04/22 02:59:50;;;;;;;;;;;10.10;99.90;;;;;;5176920;27;19918;-39
2023/04/22 03:02:16;;;;;;;;;;;10.10;99.90;;;;;;5165565;27;19911;-39
2023/04/22 03:04:41;;;;;;;;;;;10.10;99.90;;;;;;5175316;27;19918;-39
2023/04/22 03:07:07;;;;;;;;;;;10.00;99.90;;;;;;5170467;27;19927;-39
2023/04/22 03:09:32;;;;;;;;;;;10.00;99.90;;;;;;5172385;27;19922;-39
2023/04/22 03:11:58;;;;;;;;;;;9.90;99.90;;;;;;5162258;27;19930;-39
2023/04/22 03:14:23;;;;;;;;;;;9.90;99.90;;;;;;5155290;27;19911;-39
2023/04/22 03:16:49;;;;;;;;;;;9.90;99.90;;;;;;5166679;27;19995;-39
2023/04/22 03:19:15;;;;;;;;;;;9.80;99.90;;;;;;5176804;27;19958;-39
2023/04/22 03:21:40;;;;;;;;;;;9.80;99.90;;;;;;5175868;27;19907;-39
2023/04/22 03:24:06;;;;;;;;;;;9.80;99.90;;;;;;5176685;27;19907;-39
2023/04/22 03:26:31;;;;;;;;;;;9.80;99.90;;;;;;5160760;27;19911;-39
2023/04/22 03:28:57;;;;;;;;;;;9.70;99.90;;;;;;5155177;27;19912;-39
2023/04/22 03:31:22;;;;;;;;;;;9.70;99.90;;;;;;5159068;27;19925;-39
2023/04/22 03:33:48;;;;;;;;;;;9.70;99.90;;;;;;5174959;27;19914;-39
2023/04/22 03:36:13;;;;;;;;;;;9.60;99.90;;;;;;5173951;27;20349;-39
2023/04/22 03:38:39;;;;;;;;;;;9.60;99.90;;;;;;5174656;27;19914;-39
2023/04/22 03:41:04;;;;;;;;;;;9.60;99.90;;;;;;5174932;27;20284;-40
2023/04/22 03:43:30;;;;;;;;;;;9.60;99.90;;;;;;5173321;27;19906;-39
2023/04/22 03:45:55;;;;;;;;;;;9.50;99.90;;;;;;5174654;27;19907;-39
2023/04/22 03:48:21;;;;;;;;;;;9.50;99.90;;;;;;5174040;27;19914;-39
2023/04/22 03:50:46;;;;;;;;;;;9.40;99.90;;;;;;5175293;27;19914;-39
2023/04/22 03:53:12;;;;;;;;;;;9.40;99.90;;;;;;5176158;27;19990;-39
2023/04/22 03:55:38;;;;;;;;;;;9.30;99.90;;;;;;5176141;27;19914;-39
2023/04/22 03:58:03;;;;;;;;;;;9.20;99.90;;;;;;5175383;27;20001;-38
2023/04/22 04:00:29;;;;;;;;;;;9.20;99.90;;;;;;5175883;27;19949;-39
2023/04/22 04:02:54;;;;;;;;;;;9.20;99.90;;;;;;5175886;27;20360;-39
2023/04/22 04:05:20;;;;;;;;;;;9.20;99.90;;;;;;5175286;27;19914;-39
2023/04/22 04:07:45;;;;;;;;;;;9.10;99.90;;;;;;5175767;27;19998;-39
2023/04/22 04:10:11;;;;;;;;;;;9.00;99.90;;;;;;5175745;27;19942;-39
2023/04/22 04:12:36;;;;;;;;;;;8.90;99.90;;;;;;5174985;27;20171;-38
2023/04/22 04:15:02;;;;;;;;;;;8.80;99.90;;;;;;5175655;27;19914;-39
2023/04/22 04:17:27;;;;;;;;;;;8.70;99.90;;;;;;5175070;27;19950;-40
2023/04/22 04:19:53;;;;;;;;;;;8.60;99.90;;;;;;5175635;27;19930;-39
2023/04/22 04:22:19;;;;;;;;;;;8.50;99.90;;;;;;5175653;27;20349;-38
2023/04/22 04:24:46;;;;;;;;;;;8.40;99.90;;;;;;5175010;27;20172;-39
2023/04/22 04:27:12;;;;;;;;;;;8.30;99.90;;;;;;5175429;27;20334;-39
2023/04/22 04:29:38;;;;;;;;;;;8.30;99.90;;;;;;5175014;27;19918;-39
2023/04/22 04:32:04;;;;;;;;;;;8.30;99.90;;;;;;5174629;27;19906;-39
2023/04/22 04:34:30;;;;;;;;;;;8.20;99.90;;;;;;5175424;27;19911;-39
2023/04/22 04:36:56;;;;;;;;;;;8.20;99.90;;;;;;5175451;27;19959;-39
2023/04/22 04:39:22;;;;;;;;;;;8.20;99.90;;;;;;5174395;27;19910;-38
2023/04/22 04:41:47;;;;;;;;;;;8.20;99.90;;;;;;5175330;27;19907;-39
2023/04/22 04:44:14;;;;;;;;;;;8.10;99.90;;;;;;5175499;27;19914;-39
2023/04/22 04:46:40;;;;;;;;;;;8.10;99.90;;;;;;5174578;27;20009;-39
2023/04/22 04:49:08;;;;;;;;;;;8.10;99.90;;;;;;5175162;27;19953;-39
2023/04/22 04:51:34;;;;;;;;;;;8.20;99.90;;;;;;5175352;27;19907;-39
2023/04/22 04:53:59;;;;;;;;;;;8.20;99.90;;;;;;5174311;27;19915;-39
2023/04/22 04:56:25;;;;;;;;;;;8.30;99.90;;;;;;5175183;27;19907;-39
2023/04/22 04:58:50;;;;;;;;;;;8.40;99.90;;;;;;5175220;27;19914;-39
2023/04/22 05:01:16;;;;;;;;;;;8.40;99.90;;;;;;5174144;27;20312;-39
2023/04/22 05:03:41;;;;;;;;;;;8.50;99.90;;;;;;5175075;27;19907;-38
2023/04/22 05:06:06;;;;;;;;;;;8.50;99.90;;;;;;5174931;27;20052;-39
2023/04/22 05:08:32;;;;;;;;;;;8.60;99.90;;;;;;5174324;27;19915;-38
2023/04/22 05:10:58;;;;;;;;;;;8.60;99.90;;;;;;5175046;27;19998;-39
2023/04/22 05:13:23;;;;;;;;;;;8.70;99.90;;;;;;5175110;27;19913;-38
2023/04/22 05:15:49;;;;;;;;;;;8.80;99.90;;;;;;5174204;27;19997;-39
2023/04/22 05:18:14;;;;;;;;;;;8.90;99.90;;;;;;5177990;27;19907;-40
2023/04/22 05:20:39;;;;;;;;;;;9.00;99.90;;;;;;5178588;27;19914;-40
2023/04/22 05:23:05;;;;;;;;;;;9.10;99.90;;;;;;5179043;27;20383;-39
2023/04/22 05:25:30;;;;;;;;;;;9.20;99.90;;;;;;5179186;27;19906;-39
2023/04/22 05:27:56;;;;;;;;;;;9.30;99.90;;;;;;5178018;27;20420;-39
2023/04/22 05:30:21;;;;;;;;;;;9.30;99.90;;;;;;5178321;27;19922;-39
2023/04/22 05:32:47;;;;;;;;;;;9.40;99.90;;;;;;5178760;27;20361;-39
2023/04/22 05:35:12;;;;;;;;;;;9.50;99.90;;;;;;5178148;27;19914;-39
2023/04/22 05:37:38;;;;;;;;;;;9.60;99.90;;;;;;5178764;27;19931;-39
2023/04/22 05:40:03;;;;;;;;;;;9.70;99.90;;;;;;5178643;27;19907;-40
2023/04/22 05:42:29;;;;;;;;;;;9.70;99.90;;;;;;5178000;27;20373;-39
2023/04/22 05:44:54;;;;;;;;;;;9.80;99.90;;;;;;5178712;27;19913;-38
2023/04/22 05:47:20;;;;;;;;;;;9.90;99.90;;;;;;5178545;27;20292;-39
2023/04/22 05:49:45;;;;;;;;;;;9.90;99.90;;;;;;5177878;27;19953;-40
2023/04/22 05:52:11;;;;;;;;;;;10.00;99.90;;;;;;5178107;27;20369;-39
2023/04/22 05:54:36;;;;;;;;;;;10.00;99.90;;;;;;5178636;27;19946;-39
2023/04/22 05:57:02;;;;;;;;;;;10.10;99.90;;;;;;5177527;27;19914;-39
2023/04/22 05:59:27;;;;;;;;;;;10.20;99.90;;;;;;5178374;27;19931;-39
2023/04/22 06:01:53;;;;;;;;;;;10.30;99.90;;;;;;5176205;27;19911;-39
2023/04/22 06:04:18;;;;;;;;;;;10.40;99.90;;;;;;5156758;27;19907;-39
2023/04/22 06:06:44;;;;;;;;;;;10.50;99.90;;;;;;5162909;27;20025;-39
2023/04/22 06:09:09;;;;;;;;;;;10.60;99.90;;;;;;5168005;27;20299;-39
2023/04/22 06:11:35;;;;;;;;;;;10.70;99.90;;;;;;5176697;27;19910;-39
2023/04/22 06:14:00;;;;;;;;;;;10.80;99.90;;;;;;5177127;27;19914;-39
2023/04/22 06:16:26;;;;;;;;;;;10.80;99.90;;;;;;5177128;27;19911;-39
2023/04/22 06:18:51;;;;;;;;;;;10.90;99.90;;;;;;5176483;27;19907;-39
2023/04/22 06:21:17;;;;;;;;;;;11.00;99.90;;;;;;5173211;27;19922;-39
2023/04/22 06:23:42;;;;;;;;;;;11.10;99.90;;;;;;5165097;27;20383;-41
2023/04/22 06:26:08;;;;;;;;;;;11.20;99.90;;;;;;5162412;27;20064;-39
2023/04/22 06:28:33;;;;;;;;;;;11.30;99.90;;;;;;5176700;27;19906;-39
2023/04/22 06:31:00;;;;;;;;;;;11.30;99.90;;;;;;5176880;27;19922;-38
2023/04/22 06:33:26;;;;;;;;;;;11.40;99.90;;;;;;5175745;27;19998;-39
2023/04/22 06:35:51;;;;;;;;;;;11.50;99.90;;;;;;5156643;27;19942;-39
2023/04/22 06:38:17;;;;;;;;;;;11.60;99.90;;;;;;5155992;27;19960;-39
2023/04/22 06:40:42;;;;;;;;;;;11.70;99.90;;;;;;5156747;27;19913;-39
2023/04/22 06:43:07;;;;;;;;;;;11.70;99.90;;;;;;5156981;27;19907;-39
2023/04/22 06:45:33;;;;;;;;;;;11.80;99.90;;;;;;5155912;27;19918;-39
2023/04/22 06:47:59;;;;;;;;;;;11.90;99.90;;;;;;5156397;27;19970;-39
2023/04/22 06:50:24;;;;;;;;;;;11.90;99.90;;;;;;5158849;27;19994;-40
2023/04/22 06:52:50;;;;;;;;;;;12.00;99.90;;;;;;5176282;27;19910;-39
2023/04/22 06:55:15;;;;;;;;;;;12.10;99.90;;;;;;5177241;27;19914;-40
2023/04/22 06:57:41;;;;;;;;;;;12.10;99.90;;;;;;5177074;27;19906;-39
2023/04/22 07:00:08;;;;;;;;;;;12.20;99.90;;;;;;5176364;27;19906;-39
2023/04/22 07:02:33;;;;;;;;;;;12.20;99.90;;;;;;5176590;27;19910;-40
2023/04/22 07:04:59;;;;;;;;;;;12.40;99.90;;;;;;5177066;27;19907;-39
2023/04/22 07:07:24;;;;;;;;;;;12.40;99.90;;;;;;5176326;27;20154;-40
2023/04/22 07:09:50;;;;;;;;;;;12.40;99.90;;;;;;5161455;27;22864;-39
2023/04/22 07:12:15;;;;;;;;;;;12.50;99.90;;;;;;5176115;27;19910;-39
2023/04/22 07:14:44;;;;;;;;;;;12.60;99.90;;;;;;5176207;27;19913;-38
2023/04/22 07:17:10;;;;;;;;;;;12.70;99.90;;;;;;5176743;27;19945;-39
2023/04/22 07:19:36;;;;;;;;;;;12.70;99.90;;;;;;5174766;27;19918;-39
2023/04/22 07:22:02;;;;;;;;;;;12.80;99.90;;;;;;5171574;27;19911;-39
2023/04/22 07:24:28;;;;;;;;;;;12.90;99.90;;;;;;5175542;27;19918;-40
2023/04/22 07:26:53;;;;;;;;;;;13.00;99.90;;;;;;5176200;27;19922;-39
2023/04/22 07:29:18;;;;;;;;;;;13.00;99.90;;;;;;5175589;27;20289;-40
2023/04/22 07:31:44;;;;;;;;;;;13.10;99.90;;;;;;5176534;27;19958;-39
2023/04/22 07:34:09;;;;;;;;;;;13.20;99.90;;;;;;5176531;27;20365;-39
2023/04/22 07:36:35;;;;;;;;;;;13.30;99.90;;;;;;5175649;27;20277;-39
2023/04/22 07:39:01;;;;;;;;;;;13.40;99.90;;;;;;5165063;27;19911;-39
2023/04/22 07:41:26;;;;;;;;;;;13.50;99.90;;;;;;5159256;27;19926;-38
2023/04/22 07:43:52;;;;;;;;;;;13.50;99.90;;;;;;5157740;27;19922;-40
2023/04/22 07:46:17;;;;;;;;;;;13.60;99.90;;;;;;5164843;27;19907;-39
2023/04/22 07:48:43;;;;;;;;;;;13.70;99.90;;;;;;5174178;27;19921;-39
2023/04/22 07:51:08;;;;;;;;;;;13.80;99.90;;;;;;5173392;27;19915;-39
2023/04/22 07:53:34;;;;;;;;;;;13.80;99.90;;;;;;5175219;27;19911;-38
2023/04/22 07:56:00;;;;;;;;;;;13.90;99.90;;;;;;5174684;27;19911;-40
2023/04/22 07:58:25;;;;;;;;;;;14.00;99.90;;;;;;5174614;27;19956;-39
2023/04/22 08:00:51;;;;;;;;;;;14.00;99.90;;;;;;5174727;27;19910;-39
2023/04/22 08:03:16;;;;;;;;;;;14.10;99.90;;;;;;5173980;27;19917;-39
2023/04/22 08:05:42;;;;;;;;;;;14.20;99.90;;;;;;5175987;27;20388;-39
2023/04/22 08:08:07;;;;;;;;;;;14.40;99.90;;;;;;5175420;27;20026;-39
2023/04/22 08:10:33;;;;;;;;;;;14.50;99.90;;;;;;5174935;27;20358;-39
2023/04/22 08:12:58;;;;;;;;;;;14.60;99.90;;;;;;5175773;27;19906;-40
2023/04/22 08:15:24;;;;;;;;;;;14.70;99.90;;;;;;5175434;27;20353;-39
2023/04/22 08:17:50;;;;;;;;;;;14.80;99.90;;;;;;5174883;27;19911;-38
2023/04/22 08:20:16;;;;;;;;;;;14.90;99.90;;;;;;5175160;27;20365;-39
2023/04/22 08:22:43;;;;;;;;;;;15.00;99.90;;;;;;5175903;27;19907;-39
2023/04/22 08:25:08;;;;;;;;;;;15.10;99.90;;;;;;5173660;27;19911;-39
2023/04/22 08:27:34;;;;;;;;;;;15.20;99.90;;;;;;5175395;27;20326;-40
2023/04/22 08:29:59;;;;;;;;;;;15.30;99.90;;;;;;5174696;27;19923;-39
2023/04/22 08:32:25;;;;;;;;;;;15.40;99.90;;;;;;5174144;27;19921;-40
2023/04/22 08:34:51;;;;;;;;;;;15.50;99.90;;;;;;5174760;27;19950;-39
2023/04/22 08:37:16;;;;;;;;;;;15.60;99.90;;;;;;5175034;27;19907;-40
2023/04/22 08:39:42;;;;;;;;;;;15.70;99.90;;;;;;5174139;27;20272;-39
2023/04/22 08:42:08;;;;;;;;;;;15.60;99.90;;;;;;5174657;27;19906;-39
2023/04/22 08:44:34;;;;;;;;;;;15.70;99.90;;;;;;5161310;27;19914;-39
2023/04/22 08:47:00;;;;;;;;;;;15.80;99.90;;;;;;5166876;27;19918;-39
2023/04/22 08:49:25;;;;;;;;;;;15.90;99.90;;;;;;5170452;27;20338;-39
2023/04/22 08:51:52;;;;;;;;;;;15.90;99.90;;;;;;5169650;27;20001;-40
2023/04/22 08:54:17;;;;;;;;;;;16.00;99.90;;;;;;5174488;27;19942;-39
2023/04/22 08:56:44;;;;;;;;;;;16.20;99.90;;;;;;5174544;27;20003;-39
2023/04/22 08:59:10;;;;;;;;;;;16.20;99.90;;;;;;5172885;27;19914;-40
2023/04/22 09:01:37;;;;;;;;;;;16.30;99.90;;;;;;5174826;27;19906;-41
2023/04/22 09:04:02;;;;;;;;;;;16.30;99.90;;;;;;5173762;27;19907;-39
2023/04/22 09:06:29;;;;;;;;;;;16.40;99.90;;;;;;5173873;27;20001;-39
2023/04/22 09:08:55;;;;;;;;;;;16.50;99.90;;;;;;5174239;27;19919;-39
2023/04/22 09:11:21;;;;;;;;;;;16.50;99.90;;;;;;5174836;27;19917;-40
2023/04/22 09:13:46;;;;;;;;;;;16.60;99.90;;;;;;5174235;27;19907;-39
2023/04/22 09:16:12;;;;;;;;;;;16.60;99.90;;;;;;5175131;27;20306;-39
2023/04/22 09:18:41;;;;;;;;;;;16.70;99.90;;;;;;5175059;27;19949;-39
2023/04/22 09:21:06;;;;;;;;;;;16.80;99.90;;;;;;5174169;27;19911;-39
2023/04/22 09:23:32;;;;;;;;;;;16.80;99.90;;;;;;5175051;27;20345;-39
2023/04/22 09:25:57;;;;;;;;;;;16.80;99.90;;;;;;5174888;27;19910;-40
2023/04/22 09:28:23;;;;;;;;;;;16.90;99.90;;;;;;5174007;27;19935;-39
2023/04/22 09:30:48;;;;;;;;;;;16.90;99.90;;;;;;5174504;27;19919;-40
2023/04/22 09:33:16;;;;;;;;;;;17.00;99.90;;;;;;5174990;27;19959;-39
2023/04/22 09:35:42;;;;;;;;;;;17.00;99.90;;;;;;5174046;27;20390;-39
2023/04/22 09:38:09;;;;;;;;;;;17.10;99.90;;;;;;5170126;27;19917;-40
2023/04/22 09:40:36;;;;;;;;;;;17.20;99.90;;;;;;5173634;27;19944;-41
2023/04/22 09:43:03;;;;;;;;;;;17.40;99.90;;;;;;5170388;27;19911;-39
2023/04/22 09:45:31;;;;;;;;;;;17.70;99.90;;;;;;5159015;27;20003;-40
2023/04/22 09:48:08;;;;;;;;;;;17.90;99.90;;;;;;5154777;27;19981;-41
2023/04/22 09:50:34;;;;;;;;;;;18.10;99.90;;;;;;5162416;27;19911;-40
2023/04/22 09:53:00;;;;;;;;;;;18.30;99.90;;;;;;5174633;27;19918;-39
2023/04/22 09:55:27;;;;;;;;;;;18.30;99.90;;;;;;5173941;27;19914;-40
2023/04/22 09:57:53;;;;;;;;;;;18.40;99.90;;;;;;5174415;27;20280;-40
2023/04/22 10:00:19;;;;;;;;;;;18.50;99.90;;;;;;5174378;27;19911;-39
2023/04/22 10:02:45;;;;;;;;;;;18.60;99.90;;;;;;5174005;27;19911;-40
2023/04/22 10:05:11;;;;;;;;;;;18.70;99.90;;;;;;5178306;27;19913;-40
2023/04/22 10:07:38;;;;;;;;;;;18.70;99.90;;;;;;5178258;27;20425;-39
2023/04/22 10:10:07;;;;;;;;;;;18.80;99.90;;;;;;5177003;27;20001;-40
2023/04/22 10:12:36;;;;;;;;;;;18.90;99.90;;;;;;5178223;27;19907;-40
2023/04/22 10:15:02;;;;;;;;;;;19.10;99.90;;;;;;5178166;27;19914;-41
2023/04/22 10:17:30;;;;;;;;;;;19.20;99.90;;;;;;5174097;27;20277;-40
2023/04/22 10:19:55;;;;;;;;;;;19.30;99.90;;;;;;5164523;27;19911;-40
2023/04/22 10:22:21;;;;;;;;;;;19.30;99.90;;;;;;5171328;27;19920;-39
2023/04/22 10:24:48;;;;;;;;;;;19.40;99.90;;;;;;5163113;27;19918;-40
2023/04/22 10:27:19;;;;;;;;;;;19.40;99.90;;;;;;5157301;27;20104;-39
2023/04/22 10:29:44;;;;;;;;;;;19.50;99.90;;;;;;5176341;27;19926;-40
2023/04/22 10:32:16;;;;;;;;;;;19.40;99.90;;;;;;5174974;27;19915;-39
2023/04/22 10:34:42;;;;;;;;;;;19.40;99.90;;;;;;5157622;27;19907;-40
2023/04/22 10:37:09;;;;;;;;;;;19.50;99.90;;;;;;5157006;27;19907;-40
2023/04/22 10:39:35;;;;;;;;;;;19.50;99.90;;;;;;5166268;27;19911;-39
2023/04/22 10:42:08;;;;;;;;;;;19.60;99.90;;;;;;5178124;27;19910;-40
2023/04/22 10:44:44;;;;;;;;;;;19.70;99.90;;;;;;5177610;27;20364;-39
2023/04/22 10:47:09;;;;;;;;;;;19.70;99.90;;;;;;5177858;27;19937;-40
2023/04/22 10:49:35;;;;;;;;;;;19.70;99.90;;;;;;5177548;27;20421;-39
2023/04/22 10:52:02;;;;;;;;;;;19.70;99.90;;;;;;5176997;27;19911;-40
2023/04/22 10:54:28;;;;;;;;;;;19.80;99.90;;;;;;5178176;27;19907;-39
2023/04/22 10:57:07;;;;;;;;;;;19.90;99.90;;;;;;5177755;27;20398;-40
2023/04/22 10:59:33;;;;;;;;;;;20.00;99.90;;;;;;5177033;27;19910;-40
2023/04/22 11:02:04;;;;;;;;;;;20.00;99.90;;;;;;5177497;27;19921;-39
2023/04/22 11:04:29;;;;;;;;;;;20.10;99.90;;;;;;5164158;27;19911;-40
2023/04/22 11:07:15;;;;;;;;;;;20.10;99.90;;;;;;5161562;27;20265;-39
2023/04/22 11:10:03;;;;;;;;;;;20.20;99.90;;;;;;5146215;27;19917;-39
2023/04/22 11:12:37;;;;;;;;;;;20.20;99.90;;;;;;5169872;27;19918;-40
2023/04/22 11:15:16;;;;;;;;;;;20.10;99.90;;;;;;5162299;27;19942;-39
2023/04/22 11:17:42;;;;;;;;;;;20.20;99.90;;;;;;5156510;27;20011;-40
2023/04/22 11:20:08;;;;;;;;;;;20.30;99.90;;;;;;5167473;27;19911;-39
2023/04/22 11:22:37;;;;;;;;;;;20.40;99.90;;;;;;5176460;27;19925;-39
2023/04/22 11:25:03;;;;;;;;;;;20.50;99.90;;;;;;5177164;27;19907;-39
2023/04/22 11:27:29;;;;;;;;;;;20.50;99.90;;;;;;5176700;27;19915;-39
2023/04/22 11:30:01;;;;;;;;;;;20.50;99.90;;;;;;5176498;27;20021;-41
2023/04/22 11:32:27;;;;;;;;;;;20.60;99.90;;;;;;5173322;27;20264;-39
2023/04/22 11:34:53;;;;;;;;;;;20.70;99.90;;;;;;5169051;27;20013;-39
2023/04/22 11:37:19;;;;;;;;;;;20.90;99.90;;;;;;5166211;27;19946;-41
2023/04/22 11:39:44;;;;;;;;;;;21.00;99.90;;;;;;5176439;27;20328;-39
2023/04/22 11:42:13;;;;;;;;;;;21.20;99.90;;;;;;5176162;27;19918;-41
2023/04/22 11:44:43;;;;;;;;;;;21.30;99.90;;;;;;5169133;27;20406;-40
2023/04/22 11:47:09;;;;;;;;;;;21.50;99.90;;;;;;5167157;27;20409;-39
2023/04/22 11:49:36;;;;;;;;;;;21.60;99.90;;;;;;5170401;27;19918;-39
2023/04/22 11:52:02;;;;;;;;;;;21.70;99.90;;;;;;5170765;27;19911;-39
2023/04/22 11:54:29;;;;;;;;;;;21.70;99.90;;;;;;5164041;27;19963;-39
2023/04/22 11:56:55;;;;;;;;;;;21.70;99.90;;;;;;5162369;27;19914;-39
2023/04/22 11:59:23;;;;;;;;;;;21.90;99.90;;;;;;5159269;27;19967;-39
2023/04/22 12:01:48;;;;;;;;;;;21.80;99.90;;;;;;5168626;27;19972;-39
2023/04/22 12:04:14;;;;;;;;;;;21.70;99.90;;;;;;5164539;27;19922;-39
2023/04/22 12:06:40;;;;;;;;;;;21.70;99.90;;;;;;5161527;27;20037;-39
2023/04/22 12:09:06;;;;;;;;;;;21.60;99.90;;;;;;5154262;27;19911;-39
2023/04/22 12:11:32;;;;;;;;;;;21.40;99.90;;;;;;5167929;27;19907;-39
2023/04/22 12:14:04;;;;;;;;;;;21.20;99.90;;;;;;5175613;27;19951;-39
2023/04/22 12:16:38;;;;;;;;;;;21.10;99.90;;;;;;5165146;27;19911;-39
2023/04/22 12:19:03;;;;;;;;;;;21.10;99.90;;;;;;5174974;27;20272;-39
2023/04/22 12:21:30;;;;;;;;;;;21.00;99.90;;;;;;5175148;27;19914;-39
2023/04/22 12:24:02;;;;;;;;;;;21.20;99.90;;;;;;5174219;27;20005;-39
2023/04/22 12:26:28;;;;;;;;;;;21.50;99.90;;;;;;5165513;27;20357;-39
2023/04/22 12:28:54;;;;;;;;;;;21.70;99.90;;;;;;5162266;27;19912;-39
2023/04/22 12:31:20;;;;;;;;;;;22.00;99.90;;;;;;5154163;27;20033;-40
2023/04/22 12:33:46;;;;;;;;;;;22.20;99.90;;;;;;5165012;27;20400;-39
2023/04/22 12:36:11;;;;;;;;;;;22.20;99.90;;;;;;5160689;27;20368;-39
2023/04/22 12:38:37;;;;;;;;;;;22.30;99.90;;;;;;5168077;27;19910;-39
2023/04/22 12:41:03;;;;;;;;;;;22.30;99.90;;;;;;5163185;27;19911;-40
2023/04/22 12:43:31;;;;;;;;;;;22.20;99.90;;;;;;5167065;27;19910;-39
2023/04/22 12:45:57;;;;;;;;;;;22.00;99.90;;;;;;5168337;27;20444;-40
2023/04/22 12:48:22;;;;;;;;;;;21.90;99.90;;;;;;5169904;27;19977;-39
2023/04/22 12:50:48;;;;;;;;;;;21.80;99.90;;;;;;5174039;27;19946;-39
2023/04/22 12:53:13;;;;;;;;;;;22.00;99.90;;;;;;5174838;27;20287;-39
2023/04/22 12:55:40;;;;;;;;;;;22.20;99.90;;;;;;5174807;27;19993;-39
2023/04/22 12:58:05;;;;;;;;;;;22.40;99.90;;;;;;5174349;27;19965;-40
2023/04/22 13:00:31;;;;;;;;;;;22.70;99.90;;;;;;5174933;27;20369;-40
2023/04/22 13:02:56;;;;;;;;;;;22.70;99.90;;;;;;5156334;27;19954;-39
2023/04/22 13:05:22;;;;;;;;;;;22.70;99.90;;;;;;5174440;27;19911;-39
2023/04/22 13:07:48;;;;;;;;;;;22.60;99.90;;;;;;5175066;27;19983;-40
2023/04/22 13:10:14;;;;;;;;;;;22.70;99.90;;;;;;5158101;27;20450;-39
2023/04/22 13:12:40;;;;;;;;;;;22.60;99.90;;;;;;5156910;27;19911;-41
2023/04/22 13:15:06;;;;;;;;;;;22.50;99.90;;;;;;5168721;27;19955;-41
2023/04/22 13:17:32;;;;;;;;;;;22.40;99.90;;;;;;5154489;27;20329;-40
2023/04/22 13:19:58;;;;;;;;;;;22.30;99.90;;;;;;5157358;27;19911;-40
2023/04/22 13:22:23;;;;;;;;;;;22.30;99.90;;;;;;5174778;27;19910;-40
2023/04/22 13:24:49;;;;;;;;;;;22.30;99.90;;;;;;5175481;27;19935;-39
2023/04/22 13:27:15;;;;;;;;;;;22.40;99.90;;;;;;5174413;27;19925;-39
2023/04/22 13:29:41;;;;;;;;;;;22.60;99.90;;;;;;5175266;27;19919;-39
2023/04/22 13:32:07;;;;;;;;;;;22.90;99.90;;;;;;5175586;27;19910;-42
2023/04/22 13:34:33;;;;;;;;;;;23.10;99.90;;;;;;5174915;27;20357;-41
2023/04/22 13:36:58;;;;;;;;;;;23.20;99.90;;;;;;5175370;27;19921;-39
2023/04/22 13:39:24;;;;;;;;;;;23.20;97.70;;;;;;5178717;27;19911;-39
2023/04/22 13:41:50;;;;;;;;;;;23.00;99.90;;;;;;5178762;27;19907;-39
2023/04/22 13:44:15;;;;;;;;;;;22.90;99.90;;;;;;5167337;27;19933;-40
2023/04/22 13:46:41;;;;;;;;;;;23.00;99.90;;;;;;5175981;27;20318;-40
2023/04/22 13:49:07;;;;;;;;;;;22.90;99.20;;;;;;5178707;27;19911;-39
2023/04/22 13:51:33;;;;;;;;;;;22.60;99.90;;;;;;5172153;27;19911;-40
2023/04/22 13:53:58;;;;;;;;;;;22.40;99.90;;;;;;5178051;27;19955;-40
2023/04/22 13:56:24;;;;;;;;;;;22.10;99.90;;;;;;5178603;27;19995;-42
2023/04/22 13:58:50;;;;;;;;;;;21.80;99.90;;;;;;5166665;27;19911;-42
2023/04/22 14:01:16;;;;;;;;;;;21.50;99.90;;;;;;5157505;27;19914;-40
2023/04/22 14:03:41;;;;;;;;;;;21.20;99.90;;;;;;5169289;27;20265;-40
2023/04/22 14:06:07;;;;;;;;;;;21.00;99.90;;;;;;5178854;27;20340;-40
2023/04/22 14:08:33;;;;;;;;;;;20.70;99.90;;;;;;5178356;27;20010;-40
2023/04/22 14:10:58;;;;;;;;;;;20.30;99.90;;;;;;5178483;27;20341;-40
2023/04/22 14:13:26;;;;;;;;;;;20.00;99.90;;;;;;5157914;27;19907;-41